地図

経路データ

SID SEASON NUMBER BASIN SUBBASIN NAME ISO_TIME NATURE LAT LON WMO_WIND WMO_PRES WMO_AGENCY TRACK_TYPE DIST2LAND LANDFALL IFLAG USA_AGENCY USA_ATCF_ID USA_LAT USA_LON USA_RECORD USA_STATUS USA_WIND USA_PRES USA_SSHS USA_R34_NE USA_R34_SE USA_R34_SW USA_R34_NW USA_R50_NE USA_R50_SE USA_R50_SW USA_R50_NW USA_R64_NE USA_R64_SE USA_R64_SW USA_R64_NW USA_POCI USA_ROCI USA_RMW USA_EYE TOKYO_LAT TOKYO_LON TOKYO_GRADE TOKYO_WIND TOKYO_PRES TOKYO_R50_DIR TOKYO_R50_LONG TOKYO_R50_SHORT TOKYO_R30_DIR TOKYO_R30_LONG TOKYO_R30_SHORT TOKYO_LAND CMA_LAT CMA_LON CMA_CAT CMA_WIND CMA_PRES HKO_LAT HKO_LON HKO_CAT HKO_WIND HKO_PRES NEWDELHI_LAT NEWDELHI_LON NEWDELHI_GRADE NEWDELHI_WIND NEWDELHI_PRES NEWDELHI_CI NEWDELHI_DP NEWDELHI_POCI REUNION_LAT REUNION_LON REUNION_TYPE REUNION_WIND REUNION_PRES REUNION_TNUM REUNION_CI REUNION_RMW REUNION_R34_NE REUNION_R34_SE REUNION_R34_SW REUNION_R34_NW REUNION_R50_NE REUNION_R50_SE REUNION_R50_SW REUNION_R50_NW REUNION_R64_NE REUNION_R64_SE REUNION_R64_SW REUNION_R64_NW BOM_LAT BOM_LON BOM_TYPE BOM_WIND BOM_PRES BOM_TNUM BOM_CI BOM_RMW BOM_R34_NE BOM_R34_SE BOM_R34_SW BOM_R34_NW BOM_R50_NE BOM_R50_SE BOM_R50_SW BOM_R50_NW BOM_R64_NE BOM_R64_SE BOM_R64_SW BOM_R64_NW BOM_ROCI BOM_POCI BOM_EYE BOM_POS_METHOD BOM_PRES_METHOD NADI_LAT NADI_LON NADI_CAT NADI_WIND NADI_PRES WELLINGTON_LAT WELLINGTON_LON WELLINGTON_WIND WELLINGTON_PRES DS824_LAT DS824_LON DS824_STAGE DS824_WIND DS824_PRES TD9636_LAT TD9636_LON TD9636_STAGE TD9636_WIND TD9636_PRES TD9635_LAT TD9635_LON TD9635_WIND TD9635_PRES TD9635_ROCI NEUMANN_LAT NEUMANN_LON NEUMANN_CLASS NEUMANN_WIND NEUMANN_PRES MLC_LAT MLC_LON MLC_CLASS MLC_WIND MLC_PRES USA_GUST BOM_GUST BOM_GUST_PER REUNION_GUST REUNION_GUST_PER USA_SEAHGT USA_SEARAD_NE USA_SEARAD_SE USA_SEARAD_SW USA_SEARAD_NW STORM_SPEED STORM_DIR
1940182N21089 1940 30 NI BB NOT_NAMED 1940-06-30 00:00:00 TS 21.1000 88.9000 main 55 33 _________O____ -1 21.1000 88.9000 TC 34 3 0
1940182N21089 1940 30 NI BB NOT_NAMED 1940-06-30 03:00:00 TS 21.2633 88.8800 main 33 15 _________PO___ -1 21.3450 88.8699 TC 41 21.1000 88.9000 2 4 348
1940182N21089 1940 30 NI BB NOT_NAMED 1940-06-30 06:00:00 TS 21.5126 88.8020 main 15 0 _________OP___ -1 21.6000 88.8000 TC 49 21.3814 88.8051 2 5 340
1940182N21089 1940 30 NI BB NOT_NAMED 1940-06-30 09:00:00 TS 21.7730 88.6835 main 10 0 _________PP___ -1 21.8650 88.6651 TC 56 21.6502 88.7080 2 5 335
1940182N21089 1940 30 NI BB NOT_NAMED 1940-06-30 12:00:00 TS 21.9970 88.5535 main 0 0 _________OP___ -1 22.1000 88.5000 TC 64 21.8940 88.6069 2 5 330
1940182N21089 1940 30 NI BB NOT_NAMED 1940-06-30 15:00:00 TS 22.1862 88.4287 main 0 0 _________PO___ -1 22.2725 88.3574 TC 55 22.1000 88.5000 4 4 324
1940182N21089 1940 30 NI BB NOT_NAMED 1940-06-30 18:00:00 TS 22.3303 88.2914 main 0 0 _________OP___ -1 22.4000 88.2000 TC 47 22.2606 88.3828 4 4 314
1940182N21089 1940 30 NI BB NOT_NAMED 1940-06-30 21:00:00 TS 22.4434 88.1384 main 0 0 _________PP___ -1 22.4998 88.0373 TC 38 22.3869 88.2394 4 4 303
1940182N21089 1940 30 NI BB NOT_NAMED 1940-07-01 00:00:00 TS 22.5474 87.9257 main 0 0 _________OP___ -1 22.6000 87.8000 TC 30 22.4948 88.0514 4 5 296
1940182N21089 1940 30 NI BB NOT_NAMED 1940-07-01 03:00:00 TS 22.6750 87.6151 main 0 0 _________PO___ -1 22.7501 87.4301 TC 30 22.6000 87.8000 1 7 293
1940182N21089 1940 30 NI BB NOT_NAMED 1940-07-01 06:00:00 TS 22.8187 87.2365 main 0 0 _________OP___ -1 22.9000 87.0000 TC 30 22.7373 87.4731 1 8 290
1940182N21089 1940 30 NI BB NOT_NAMED 1940-07-01 09:00:00 TS 22.9400 86.8451 main 0 0 _________PP___ -1 23.0073 86.6074 TC 30 22.8727 87.0829 1 8 287
1940182N21089 1940 30 NI BB NOT_NAMED 1940-07-01 12:00:00 TS 23.0483 86.4256 main 0 0 _________OP___ -1 23.1000 86.2000 TC 30 22.9966 86.6512 1 8 285
1940182N21089 1940 30 NI BB NOT_NAMED 1940-07-01 15:00:00 TS 23.1575 85.9788 main 0 0 _________PO___ -1 23.2149 85.7576 TC 30 23.1000 86.2000 1 8 283
1940182N21089 1940 30 NI BB NOT_NAMED 1940-07-01 18:00:00 TS 23.2419 85.5281 main 0 0 _________OP___ -1 23.3000 85.3000 TC 30 23.1837 85.7561 1 8 278
1940182N21089 1940 30 NI BB NOT_NAMED 1940-07-01 21:00:00 TS 23.2800 85.0712 main 0 0 _________PP___ -1 23.3149 84.8424 TC 30 23.2450 85.2999 1 8 273
1940182N21089 1940 30 NI BB NOT_NAMED 1940-07-02 00:00:00 TS 23.2919 84.6219 main 0 0 _________OP___ -1 23.3000 84.4000 TC 30 23.2837 84.8438 1 8 272
1940182N21089 1940 30 NI BB NOT_NAMED 1940-07-02 03:00:00 TS 23.3037 84.1963 main 0 0 _________PO___ -1 23.3073 83.9926 TC 30 23.3000 84.4000 1 8 270
1940182N21089 1940 30 NI BB NOT_NAMED 1940-07-02 06:00:00 TS 23.2980 83.7927 main 0 0 _________OP___ -1 23.3000 83.6000 TC 30 23.2961 83.9853 1 7 267
1940182N21089 1940 30 NI BB NOT_NAMED 1940-07-02 09:00:00 TS 23.2646 83.3923 main 0 0 _________PP___ -1 23.2574 83.2000 TC 30 23.2719 83.5847 1 7 264
1940182N21089 1940 30 NI BB NOT_NAMED 1940-07-02 12:00:00 TS 23.2184 82.9958 main 0 0 _________OP___ -1 23.2000 82.8000 TC 30 23.2367 83.1917 1 7 263
1940182N21089 1940 30 NI BB NOT_NAMED 1940-07-02 15:00:00 TS 23.1712 82.6000 main 0 0 _________PO___ -1 23.1424 82.4000 TC 30 23.2000 82.8000 1 7 264
1940182N21089 1940 30 NI BB NOT_NAMED 1940-07-02 18:00:00 TS 23.1394 82.2311 main 0 0 _________OP___ -1 23.1000 82.0000 TC 30 23.1690 82.4045 1 7 266
1940182N21089 1940 30 NI BB NOT_NAMED 1940-07-02 21:00:00 TS 23.1221 81.8431 main 0 0 _________PP___ -1 23.0902 81.6001 TC 30 23.1434 82.0051 1 7 268
1940182N21089 1940 30 NI BB NOT_NAMED 1940-07-03 00:00:00 TS 23.1141 81.4688 main 0 0 _________OP___ -1 23.1000 81.2000 TC 30 23.1212 81.6032 1 6 268
1940182N21089 1940 30 NI BB NOT_NAMED 1940-07-03 03:00:00 NR 23.1000 81.2000 main 0 __________O___ -1 TC 23.1000 81.2000 1 5 267

IBTrACS Databaseについて

本データベースは、米国NOAAが公開する1842年以降の世界の熱帯低気圧のベストトラックデータアーカイブInternational Best Track Archive for Climate Stewardship (IBTrACS)を、ウェブで閲覧しやすい形式に変換したものです。

最終更新日:2021-12-06